createdAt,value
2019-01-11T00:01:00.273Z,80.84
2019-01-11T00:04:05.538Z,80.90
2019-01-11T00:07:10.711Z,80.63
2019-01-11T00:10:16.018Z,81.13
2019-01-11T00:13:21.191Z,80.63
2019-01-11T00:16:26.375Z,80.62
2019-01-11T00:19:31.601Z,80.62
2019-01-11T00:22:36.739Z,80.58
2019-01-11T00:25:41.917Z,81.01
2019-01-11T00:28:47.088Z,80.76
2019-01-11T00:31:52.446Z,80.07
2019-01-11T00:34:57.657Z,80.18
2019-01-11T00:38:02.832Z,80.35
2019-01-11T00:41:08.023Z,80.69
2019-01-11T00:44:13.158Z,81.40
2019-01-11T00:47:18.354Z,81.08
2019-01-11T00:50:23.522Z,80.90
2019-01-11T00:53:28.675Z,80.45
2019-01-11T00:56:33.936Z,80.69
2019-01-11T00:59:39.048Z,80.88
2019-01-11T01:02:44.253Z,80.95
2019-01-11T01:05:49.493Z,80.78
2019-01-11T01:08:54.809Z,80.90
2019-01-11T01:12:00.012Z,81.03
2019-01-11T01:15:07.667Z,81.08
2019-01-11T01:18:13.110Z,80.66
2019-01-11T01:21:18.315Z,80.11
2019-01-11T01:24:23.482Z,80.30
2019-01-11T01:27:28.675Z,80.15
2019-01-11T01:30:33.966Z,80.51
2019-01-11T01:33:39.249Z,80.48
2019-01-11T01:36:44.442Z,80.52
2019-01-11T01:39:49.686Z,80.55
2019-01-11T01:42:54.870Z,81.34
2019-01-11T01:46:00.139Z,80.78
2019-01-11T01:49:05.415Z,81.08
2019-01-11T01:52:10.704Z,81.69
2019-01-11T01:55:16.614Z,81.87
2019-01-11T01:58:21.846Z,81.75
2019-01-11T02:01:27.106Z,81.73
2019-01-11T02:04:32.384Z,81.32
2019-01-11T02:07:37.517Z,81.83
2019-01-11T02:10:42.727Z,81.46
2019-01-11T02:13:47.917Z,81.42
2019-01-11T02:16:53.156Z,81.15
2019-01-11T02:19:58.323Z,80.85
2019-01-11T02:23:03.533Z,80.25
2019-01-11T02:26:08.712Z,80.91
2019-01-11T02:29:13.986Z,80.79
2019-01-11T02:32:19.205Z,80.25
2019-01-11T02:35:24.523Z,80.08
2019-01-11T02:38:29.696Z,79.64
2019-01-11T02:41:35.052Z,79.61
2019-01-11T02:44:40.317Z,78.69
2019-01-11T02:47:45.637Z,79.43
2019-01-11T02:50:50.817Z,80.09
2019-01-11T02:53:56.020Z,80.06
2019-01-11T02:57:01.285Z,80.09
2019-01-11T03:00:18.463Z,80.63
2019-01-11T03:03:24.885Z,80.48
2019-01-11T03:06:30.090Z,80.38
2019-01-11T03:09:37.656Z,79.72
2019-01-11T03:12:42.824Z,79.64
2019-01-11T03:15:48.094Z,79.35
2019-01-11T03:18:53.413Z,79.54
2019-01-11T03:21:58.607Z,80.06
2019-01-11T03:25:04.437Z,80.03
2019-01-11T03:28:09.655Z,79.44
2019-01-11T03:31:24.103Z,79.76
2019-01-11T03:34:29.332Z,79.96
2019-01-11T03:37:34.590Z,79.72
2019-01-11T03:40:39.833Z,79.16
2019-01-11T03:43:47.276Z,79.50
2019-01-11T03:46:52.459Z,80.20
2019-01-11T03:49:57.579Z,80.83
2019-01-11T03:53:02.860Z,81.79
2019-01-11T03:56:08.249Z,81.98
2019-01-11T03:59:13.519Z,81.68
2019-01-11T04:02:18.733Z,82.05
2019-01-11T04:05:23.848Z,82.88
2019-01-11T04:08:28.958Z,82.73
2019-01-11T04:11:34.099Z,83.67
2019-01-11T04:14:39.523Z,85.23
2019-01-11T04:17:44.791Z,85.38
2019-01-11T04:20:50.029Z,85.29
2019-01-11T04:23:55.260Z,85.78
2019-01-11T04:27:00.427Z,86.31
2019-01-11T04:30:09.699Z,86.70
2019-01-11T04:33:14.901Z,87.19
2019-01-11T04:36:20.108Z,87.54
2019-01-11T04:39:25.356Z,87.69
2019-01-11T04:42:30.479Z,87.57
2019-01-11T04:45:35.674Z,86.76
2019-01-11T04:48:40.842Z,86.74
2019-01-11T04:51:46.050Z,87.14
2019-01-11T04:54:51.226Z,86.97
2019-01-11T04:57:56.560Z,87.38
2019-01-11T05:01:01.752Z,87.45
2019-01-11T05:04:06.975Z,87.44
2019-01-11T05:07:12.303Z,87.27
2019-01-11T05:10:19.202Z,87.22
2019-01-11T05:13:38.010Z,87.99
2019-01-11T05:16:43.256Z,88.66
2019-01-11T05:19:49.552Z,88.89
2019-01-11T05:22:54.747Z,89.20
2019-01-11T05:25:59.950Z,89.75
2019-01-11T05:29:05.372Z,89.27
2019-01-11T05:32:10.614Z,88.96
2019-01-11T05:35:15.811Z,89.27
2019-01-11T05:38:20.944Z,89.39
2019-01-11T05:41:26.167Z,89.61
2019-01-11T05:44:31.407Z,89.39
2019-01-11T05:47:36.673Z,89.31
2019-01-11T05:50:41.845Z,89.50
2019-01-11T05:53:47.127Z,89.03
2019-01-11T05:56:52.285Z,89.77
2019-01-11T05:59:57.742Z,89.31
2019-01-11T06:03:02.981Z,89.34
2019-01-11T06:06:08.498Z,89.40
2019-01-11T06:09:13.718Z,89.25
2019-01-11T06:12:19.067Z,89.23
2019-01-11T06:15:24.310Z,88.96
2019-01-11T06:18:29.727Z,89.19
2019-01-11T06:21:34.967Z,89.01
2019-01-11T06:24:40.188Z,89.10
2019-01-11T06:27:45.329Z,89.10
2019-01-11T06:30:50.652Z,89.07
2019-01-11T06:33:56.026Z,89.06
2019-01-11T06:37:01.289Z,88.49
2019-01-11T06:40:08.242Z,88.52
2019-01-11T06:43:13.475Z,88.58
2019-01-11T06:46:20.381Z,89.35
2019-01-11T06:49:25.610Z,89.53
2019-01-11T06:52:30.857Z,89.43
2019-01-11T06:55:36.022Z,89.52
2019-01-11T06:58:41.196Z,89.68
2019-01-11T07:01:46.393Z,90.01
2019-01-11T07:04:51.604Z,90.11
2019-01-11T07:07:56.854Z,89.72
2019-01-11T07:11:02.121Z,89.95
2019-01-11T07:14:07.468Z,89.77
2019-01-11T07:17:12.643Z,89.75
2019-01-11T07:20:17.846Z,89.46
2019-01-11T07:23:25.242Z,89.28
2019-01-11T07:26:30.422Z,89.57
2019-01-11T07:29:35.641Z,89.68
2019-01-11T07:32:41.394Z,90.00
2019-01-11T07:36:06.298Z,88.92
2019-01-11T07:39:31.165Z,89.37
2019-01-11T07:42:36.327Z,90.02
2019-01-11T07:45:41.536Z,90.36
2019-01-11T07:48:46.788Z,90.34
2019-01-11T07:51:51.976Z,89.64
2019-01-11T07:54:57.151Z,90.22
2019-01-11T07:58:02.326Z,90.25
2019-01-11T08:01:07.765Z,89.71
2019-01-11T08:04:13.043Z,89.54
2019-01-11T08:07:18.250Z,89.12
2019-01-11T08:10:23.496Z,88.46
2019-01-11T08:13:28.912Z,88.62
2019-01-11T08:16:34.168Z,88.49
2019-01-11T08:19:39.321Z,88.22
2019-01-11T08:22:44.593Z,88.05
2019-01-11T08:25:49.750Z,88.45
2019-01-11T08:28:54.938Z,88.09
2019-01-11T08:32:00.058Z,88.35
2019-01-11T08:35:07.873Z,87.42
2019-01-11T08:38:13.046Z,87.14
2019-01-11T08:41:18.352Z,87.05
2019-01-11T08:44:23.533Z,86.29
2019-01-11T08:47:28.712Z,86.93
2019-01-11T08:50:34.109Z,87.69
2019-01-11T08:53:39.288Z,87.59
2019-01-11T08:56:44.391Z,87.88
2019-01-11T08:59:49.793Z,87.11
2019-01-11T09:02:54.983Z,86.67
2019-01-11T09:06:00.274Z,85.99
2019-01-11T09:09:08.978Z,86.69
2019-01-11T09:12:14.215Z,86.24
2019-01-11T09:15:19.346Z,83.97
2019-01-11T09:18:34.760Z,84.76
2019-01-11T09:21:41.678Z,84.56
2019-01-11T09:24:46.874Z,84.79
2019-01-11T09:27:52.126Z,84.07
2019-01-11T09:30:57.405Z,83.74
2019-01-11T09:34:02.607Z,83.93
2019-01-11T09:37:07.833Z,83.77
2019-01-11T09:40:13.195Z,82.87
2019-01-11T09:43:18.466Z,83.29
2019-01-11T09:46:23.633Z,84.12
2019-01-11T09:49:28.797Z,84.34
2019-01-11T09:52:33.968Z,83.19
2019-01-11T09:55:39.202Z,83.03
2019-01-11T09:58:44.429Z,83.02
2019-01-11T10:01:59.569Z,82.29
2019-01-11T10:05:06.488Z,82.64
2019-01-11T10:08:11.712Z,81.43
2019-01-11T10:11:16.882Z,82.08
2019-01-11T10:14:22.106Z,81.58
2019-01-11T10:17:27.366Z,82.29
2019-01-11T10:20:32.731Z,82.39
2019-01-11T10:23:37.949Z,80.36
2019-01-11T10:26:43.102Z,80.98
2019-01-11T10:29:48.280Z,80.97
2019-01-11T10:32:53.489Z,80.68
2019-01-11T10:35:59.785Z,81.18
2019-01-11T10:39:07.617Z,81.73
2019-01-11T10:42:14.655Z,82.86
2019-01-11T10:45:24.197Z,83.79
2019-01-11T10:48:29.450Z,84.72
2019-01-11T10:51:34.748Z,85.57
2019-01-11T10:54:43.735Z,86.36
2019-01-11T10:57:49.646Z,86.76
2019-01-11T11:00:54.866Z,85.86
2019-01-11T11:04:00.046Z,87.23
2019-01-11T11:07:05.585Z,88.39
2019-01-11T11:10:12.134Z,88.63
2019-01-11T11:13:17.326Z,88.71
2019-01-11T11:16:22.613Z,88.36
2019-01-11T11:19:27.791Z,88.17
2019-01-11T11:22:32.975Z,88.12
2019-01-11T11:25:38.184Z,85.87
2019-01-11T11:28:43.366Z,85.99
2019-01-11T11:31:48.603Z,85.96
2019-01-11T11:34:53.726Z,86.87
2019-01-11T11:37:59.356Z,86.43
2019-01-11T11:41:05.656Z,86.40
2019-01-11T11:44:10.896Z,86.37
2019-01-11T11:47:16.270Z,86.13
2019-01-11T11:50:21.538Z,86.40
2019-01-11T11:53:26.747Z,86.27
2019-01-11T11:56:31.907Z,84.37
2019-01-11T11:59:37.176Z,84.28
2019-01-11T12:02:42.398Z,85.11
2019-01-11T12:05:47.602Z,85.46
2019-01-11T12:08:52.873Z,85.72
2019-01-11T12:11:58.003Z,86.73
2019-01-11T12:15:03.222Z,87.11
2019-01-11T12:18:09.553Z,87.44
2019-01-11T12:21:14.822Z,88.69
2019-01-11T12:24:20.140Z,89.00
2019-01-11T12:27:25.392Z,89.87
2019-01-11T12:30:30.813Z,87.78
2019-01-11T12:33:36.123Z,86.15
2019-01-11T12:36:41.310Z,85.97
2019-01-11T12:39:46.539Z,85.86
2019-01-11T12:42:51.841Z,86.01
2019-01-11T12:45:57.013Z,85.32
2019-01-11T12:49:02.299Z,84.92
2019-01-11T12:52:08.770Z,86.51
2019-01-11T12:55:13.969Z,86.67
2019-01-11T12:58:19.233Z,84.99
2019-01-11T13:01:24.512Z,85.05
2019-01-11T13:04:29.773Z,85.91
2019-01-11T13:07:34.959Z,86.36
2019-01-11T13:10:40.191Z,87.29
2019-01-11T13:13:45.487Z,87.25
2019-01-11T13:16:50.807Z,85.04
2019-01-11T13:19:55.991Z,85.25
2019-01-11T13:23:01.210Z,85.15
2019-01-11T13:26:06.456Z,86.08
2019-01-11T13:29:11.740Z,86.36
2019-01-11T13:32:16.937Z,84.70
2019-01-11T13:35:22.165Z,85.43
2019-01-11T13:38:27.541Z,87.14
2019-01-11T13:41:32.791Z,86.91
2019-01-11T13:44:38.234Z,85.84
2019-01-11T13:47:43.502Z,86.77
2019-01-11T13:50:48.706Z,86.84
2019-01-11T13:53:53.871Z,87.94
2019-01-11T13:56:59.149Z,85.37
2019-01-11T14:00:05.714Z,85.30
2019-01-11T14:03:12.665Z,85.58
2019-01-11T14:06:18.953Z,84.25
2019-01-11T14:09:24.599Z,85.70
2019-01-11T14:12:29.777Z,84.79
2019-01-11T14:15:34.980Z,85.25
2019-01-11T14:18:40.274Z,85.45
2019-01-11T14:21:45.441Z,85.69
2019-01-11T14:24:50.680Z,85.61
2019-01-11T14:27:55.949Z,85.98
2019-01-11T14:31:01.277Z,85.45
2019-01-11T14:34:06.616Z,85.56
2019-01-11T14:37:11.788Z,86.14
2019-01-11T14:40:17.074Z,84.79
2019-01-11T14:43:22.314Z,86.47
2019-01-11T14:46:27.518Z,85.87
2019-01-11T14:49:32.784Z,85.17
2019-01-11T14:52:38.002Z,85.85
2019-01-11T14:55:43.211Z,86.25
2019-01-11T14:58:48.422Z,86.62
2019-01-11T15:01:53.696Z,87.41
2019-01-11T15:04:58.860Z,87.23
2019-01-11T15:08:04.240Z,87.33
2019-01-11T15:11:09.525Z,86.34
2019-01-11T15:14:20.746Z,86.81
2019-01-11T15:17:26.003Z,86.63
2019-01-11T15:20:31.209Z,87.67
2019-01-11T15:23:37.432Z,88.60
2019-01-11T15:26:42.695Z,87.74
2019-01-11T15:29:48.017Z,87.35
2019-01-11T15:32:53.473Z,88.01
2019-01-11T15:35:58.630Z,88.04
2019-01-11T15:39:05.302Z,87.56
2019-01-11T15:42:10.486Z,88.12
2019-01-11T15:45:15.818Z,87.98
2019-01-11T15:48:38.647Z,88.25
2019-01-11T15:51:43.874Z,88.46
2019-01-11T15:54:49.020Z,88.48
2019-01-11T15:57:54.295Z,88.95
2019-01-11T16:00:59.458Z,89.30
2019-01-11T16:04:09.137Z,89.53
2019-01-11T16:07:14.418Z,89.07
2019-01-11T16:10:22.339Z,89.11
2019-01-11T16:13:37.451Z,89.74
2019-01-11T16:17:09.063Z,90.11
2019-01-11T16:20:14.281Z,89.70
2019-01-11T16:23:19.591Z,89.84
2019-01-11T16:26:24.900Z,90.39
2019-01-11T16:29:30.664Z,90.89
2019-01-11T16:32:35.819Z,91.26
2019-01-11T16:35:41.118Z,90.97
2019-01-11T16:38:46.304Z,91.90
2019-01-11T16:41:51.609Z,91.75
2019-01-11T16:44:56.928Z,91.22
2019-01-11T16:48:02.157Z,91.68
2019-01-11T16:51:07.316Z,91.81
2019-01-11T16:54:12.608Z,91.85
2019-01-11T16:57:17.812Z,91.81
2019-01-11T17:00:23.058Z,91.02
2019-01-11T17:03:28.323Z,90.75
2019-01-11T17:06:33.522Z,91.50
2019-01-11T17:09:38.806Z,91.63
2019-01-11T17:12:45.629Z,90.54
2019-01-11T17:15:50.853Z,89.90
2019-01-11T17:18:56.093Z,89.56
2019-01-11T17:22:01.305Z,89.80
2019-01-11T17:25:06.870Z,89.40
2019-01-11T17:28:12.019Z,89.68
2019-01-11T17:31:17.265Z,90.03
2019-01-11T17:34:22.608Z,89.51
2019-01-11T17:37:27.891Z,90.02
2019-01-11T17:40:33.110Z,90.05
2019-01-11T17:43:38.309Z,90.89
2019-01-11T17:46:43.562Z,90.91
2019-01-11T17:49:48.727Z,91.24
2019-01-11T17:52:59.686Z,90.95
2019-01-11T17:56:00.874Z,91.52
2019-01-11T17:59:08.534Z,91.11
2019-01-11T18:02:13.757Z,91.28
2019-01-11T18:05:22.283Z,90.33
2019-01-11T18:08:27.500Z,91.07
2019-01-11T18:11:32.728Z,91.47
2019-01-11T18:14:37.921Z,90.50
2019-01-11T18:17:43.454Z,90.52
2019-01-11T18:20:48.656Z,90.31
2019-01-11T18:23:53.892Z,90.69
2019-01-11T18:26:59.061Z,90.26
2019-01-11T18:30:06.055Z,89.70
2019-01-11T18:33:13.095Z,89.07
2019-01-11T18:36:18.314Z,89.38
2019-01-11T18:39:24.532Z,89.84
2019-01-11T18:42:29.950Z,90.01
2019-01-11T18:45:35.162Z,90.70
2019-01-11T18:48:40.465Z,91.35
2019-01-11T18:51:45.601Z,91.63
2019-01-11T18:54:51.957Z,91.68
2019-01-11T18:57:57.503Z,91.28
2019-01-11T19:01:02.773Z,91.74
2019-01-11T19:04:07.943Z,91.73
2019-01-11T19:07:13.147Z,92.03
2019-01-11T19:10:19.476Z,92.47
2019-01-11T19:13:24.594Z,91.62
2019-01-11T19:16:29.779Z,92.32
2019-01-11T19:19:35.003Z,93.28
2019-01-11T19:22:40.196Z,93.79
2019-01-11T19:25:45.371Z,93.94
2019-01-11T19:28:50.705Z,93.43
2019-01-11T19:31:56.117Z,92.93
2019-01-11T19:35:01.435Z,93.47
2019-01-11T19:38:06.613Z,93.62
2019-01-11T19:41:11.753Z,94.08
2019-01-11T19:44:17.032Z,94.35
2019-01-11T19:47:22.319Z,94.98
2019-01-11T19:50:27.544Z,94.56
2019-01-11T19:53:32.881Z,94.68
2019-01-11T19:56:38.423Z,95.01
2019-01-11T19:59:43.589Z,94.90
2019-01-11T20:02:50.658Z,94.24
2019-01-11T20:05:56.080Z,93.56
2019-01-11T20:09:01.471Z,94.16
2019-01-11T20:12:11.297Z,94.04
2019-01-11T20:15:16.711Z,94.31
2019-01-11T20:18:21.903Z,94.62
2019-01-11T20:21:27.179Z,94.84
2019-01-11T20:24:34.391Z,94.99
2019-01-11T20:27:39.713Z,95.21
2019-01-11T20:30:44.997Z,95.31
2019-01-11T20:33:50.251Z,95.56
2019-01-11T20:37:08.129Z,95.29
2019-01-11T20:40:14.806Z,95.36
2019-01-11T20:43:20.343Z,95.58
2019-01-11T20:46:25.533Z,95.15
2019-01-11T20:49:30.781Z,94.92
2019-01-11T20:52:35.917Z,94.84
2019-01-11T20:55:41.174Z,94.61
2019-01-11T20:58:46.311Z,95.18
2019-01-11T21:01:51.579Z,95.50
2019-01-11T21:04:56.753Z,95.69
2019-01-11T21:08:02.018Z,95.42
2019-01-11T21:11:07.349Z,95.42
2019-01-11T21:14:12.617Z,95.17
2019-01-11T21:17:19.002Z,94.77
2019-01-11T21:20:24.423Z,94.89
2019-01-11T21:23:29.733Z,95.43
2019-01-11T21:26:35.041Z,94.74
2019-01-11T21:29:42.636Z,94.63
2019-01-11T21:32:47.993Z,94.97
2019-01-11T21:35:53.336Z,94.89
2019-01-11T21:38:58.627Z,94.75
2019-01-11T21:42:03.953Z,95.02
2019-01-11T21:45:10.394Z,95.07
2019-01-11T21:48:15.635Z,95.27
2019-01-11T21:51:20.790Z,95.67
2019-01-11T21:54:26.036Z,96.34
2019-01-11T21:57:31.432Z,96.60
2019-01-11T22:00:42.208Z,96.62
2019-01-11T22:03:47.402Z,96.63
2019-01-11T22:06:52.596Z,96.96
2019-01-11T22:09:57.993Z,96.75
2019-01-11T22:13:03.115Z,96.40
2019-01-11T22:16:08.381Z,96.57
2019-01-11T22:19:13.613Z,96.56
2019-01-11T22:22:18.919Z,96.79
2019-01-11T22:25:24.093Z,96.63
2019-01-11T22:28:29.290Z,96.38
2019-01-11T22:31:34.509Z,96.60
2019-01-11T22:34:39.793Z,96.92
2019-01-11T22:37:45.104Z,96.87
2019-01-11T22:40:50.351Z,97.11
2019-01-11T22:43:56.892Z,97.25
2019-01-11T22:47:02.028Z,97.49
2019-01-11T22:50:08.297Z,97.50
2019-01-11T22:53:13.481Z,97.68
2019-01-11T22:56:19.087Z,97.61
2019-01-11T22:59:24.326Z,97.88
2019-01-11T23:02:48.004Z,97.65
2019-01-11T23:05:56.545Z,97.26
2019-01-11T23:09:01.731Z,97.20
2019-01-11T23:12:41.767Z,96.38
2019-01-11T23:15:57.664Z,96.23
2019-01-11T23:19:02.909Z,96.48
2019-01-11T23:22:08.135Z,96.76
2019-01-11T23:25:13.256Z,96.27
2019-01-11T23:28:18.673Z,95.73
2019-01-11T23:31:23.973Z,95.50
2019-01-11T23:34:32.167Z,95.53
2019-01-11T23:37:37.303Z,95.38
2019-01-11T23:40:42.527Z,94.98
2019-01-11T23:43:47.814Z,95.25
2019-01-11T23:46:53.033Z,95.70
2019-01-11T23:49:58.337Z,96.27
2019-01-11T23:53:03.519Z,96.82
2019-01-11T23:56:08.741Z,97.07
2019-01-11T23:59:13.931Z,96.86
